Time;durP1;ratioP1;P1;durP2;ratioP2;P2;SDS_P1;SDS_P2;PMS_P1;PMS_P2;Temp;Humidity;BMP_temperature;BMP_pressure;BME280_temperature;BME280_humidity;BME280_pressure;Samples;Min_cycle;Max_cycle;Signal;HPM_P1;HPM_P2
2022/09/10 00:01:47;;;;;;;14.30;3.10;;;;;15.58;97256.40;;;;111047;1248;41485;-63
2022/09/10 00:04:17;;;;;;;18.40;3.30;;;;;15.54;97245.60;;;;111044;1249;41133;-63
2022/09/10 00:06:46;;;;;;;8.00;3.00;;;;;15.50;97244.60;;;;110825;1249;41722;-63
2022/09/10 00:09:15;;;;;;;22.50;3.50;;;;;15.52;97244.60;;;;111038;1248;41620;-63
2022/09/10 00:11:45;;;;;;;8.60;2.80;;;;;15.54;97241.00;;;;111041;1250;41152;-63
2022/09/10 00:14:19;;;;;;;25.90;4.10;;;;;15.50;97243.00;;;;111029;1249;41261;-63
2022/09/10 00:16:48;;;;;;;15.90;4.10;;;;;15.40;97242.00;;;;111023;1249;41146;-63
2022/09/10 00:19:18;;;;;;;19.30;4.40;;;;;15.30;97251.20;;;;110857;1249;41619;-63
2022/09/10 00:21:49;;;;;;;23.00;3.70;;;;;15.20;97249.80;;;;111046;1250;41247;-63
2022/09/10 00:24:21;;;;;;;22.20;3.70;;;;;15.20;97254.80;;;;111009;1249;41130;-63
2022/09/10 00:26:50;;;;;;;11.30;3.10;;;;;15.20;97250.00;;;;110781;1249;41471;-63
2022/09/10 00:29:20;;;;;;;8.40;2.80;;;;;15.20;97242.80;;;;109712;1250;1723473;-62
2022/09/10 00:31:51;;;;;;;6.30;2.70;;;;;15.20;97236.80;;;;110880;1250;41887;-64
2022/09/10 00:34:20;;;;;;;7.60;3.30;;;;;15.20;97229.40;;;;111069;1249;41968;-63
2022/09/10 00:36:50;;;;;;;10.80;4.10;;;;;15.20;97221.60;;;;110853;1250;41153;-63
2022/09/10 00:39:21;;;;;;;17.40;3.70;;;;;15.10;97217.20;;;;111052;1248;41714;-64
2022/09/10 00:41:53;;;;;;;;;;;;;15.00;97213.80;;;;111025;1247;41606;-62
2022/09/10 00:44:41;;;;;;;12.00;5.20;;;;;14.80;97214.00;;;;110956;1251;41207;-62
2022/09/10 00:47:19;;;;;;;20.70;4.50;;;;;14.80;97213.00;;;;110934;1250;41958;-62
2022/09/10 00:49:53;;;;;;;8.40;4.10;;;;;14.80;97208.00;;;;110895;1250;41146;-62
2022/09/10 00:52:23;;;;;;;10.50;4.10;;;;;14.80;97204.20;;;;110909;1250;41894;-62
2022/09/10 00:54:53;;;;;;;13.20;4.40;;;;;14.80;97198.20;;;;110839;1250;41635;-62
2022/09/10 00:57:24;;;;;;;28.10;4.50;;;;;14.80;97193.60;;;;110915;1251;41154;-63
2022/09/10 00:59:58;;;;;;;;;;;;;14.80;97184.00;;;;110948;1250;41369;-62
2022/09/10 01:02:27;;;;;;;12.20;4.20;;;;;14.70;97188.40;;;;110713;1250;42308;-62
2022/09/10 01:04:57;;;;;;;10.20;3.40;;;;;14.70;97187.00;;;;110688;1249;41453;-63
2022/09/10 01:07:28;;;;;;;33.00;4.30;;;;;14.72;97183.40;;;;110846;1251;41152;-62
2022/09/10 01:09:58;;;;;;;;;;;;;14.78;97180.60;;;;110714;1250;41712;-63
2022/09/10 01:12:45;;;;;;;21.50;2.70;;;;;14.72;97178.60;;;;110928;1250;41824;-62
2022/09/10 01:15:45;;;;;;;7.90;2.50;;;;;14.78;97177.00;;;;110943;1250;41279;-62
2022/09/10 01:18:50;;;;;;;8.90;2.80;;;;;14.70;97176.00;;;;110864;1250;42643;-62
2022/09/10 01:21:33;;;;;;;20.80;3.20;;;;;14.70;97169.40;;;;110823;1250;42138;-62
2022/09/10 01:24:11;;;;;;;20.00;3.30;;;;;14.70;97174.80;;;;110809;1250;41418;-63
2022/09/10 01:27:11;;;;;;;8.60;2.90;;;;;14.74;97173.20;;;;110969;1250;41605;-63
2022/09/10 01:29:59;;;;;;;12.70;3.00;;;;;14.70;97171.40;;;;110667;1251;41722;-62
2022/09/10 01:32:42;;;;;;;5.10;2.40;;;;;14.70;97175.20;;;;110776;1250;41983;-62
2022/09/10 01:35:17;;;;;;;22.20;3.00;;;;;14.70;97173.60;;;;110798;1250;41204;-62
2022/09/10 01:37:54;;;;;;;44.00;4.20;;;;;14.70;97175.20;;;;110891;1250;41275;-63
2022/09/10 01:40:28;;;;;;;24.80;4.50;;;;;14.60;97173.00;;;;110750;1250;41720;-63
2022/09/10 01:43:06;;;;;;;13.10;4.10;;;;;14.50;97173.60;;;;110756;1251;41548;-64
2022/09/10 01:45:51;;;;;;;21.30;4.60;;;;;14.58;97172.00;;;;111029;1249;41146;-62
2022/09/10 01:48:38;;;;;;;23.70;3.70;;;;;14.60;97171.20;;;;110721;1250;41158;-62
2022/09/10 01:51:20;;;;;;;8.80;2.80;;;;;14.60;97165.60;;;;110626;1250;41587;-62
2022/09/10 01:54:01;;;;;;;14.20;3.10;;;;;14.60;97160.20;;;;110681;1251;41460;-62
2022/09/10 01:56:44;;;;;;;7.00;2.90;;;;;14.60;97162.40;;;;110860;1249;41257;-61
2022/09/10 01:59:36;;;;;;;20.50;3.80;;;;;14.60;97153.80;;;;110834;1249;41146;-62
2022/09/10 02:02:19;;;;;;;9.90;3.80;;;;;14.50;97146.20;;;;110861;1251;42275;-62
2022/09/10 02:04:51;;;;;;;10.40;3.40;;;;;14.40;97142.00;;;;110639;1250;41292;-61
2022/09/10 02:07:23;;;;;;;8.10;3.10;;;;;14.40;97143.00;;;;110630;1249;41149;-61
2022/09/10 02:09:54;;;;;;;12.60;3.40;;;;;14.40;97139.20;;;;110611;1250;41170;-61
2022/09/10 02:12:24;;;;;;;5.80;2.80;;;;;14.40;97140.60;;;;110611;1250;41160;-60
2022/09/10 02:15:13;;;;;;;6.00;2.50;;;;;14.40;97134.60;;;;110775;1250;41254;-61
2022/09/10 02:17:52;;;;;;;6.80;3.00;;;;;14.50;97136.20;;;;110633;1250;41263;-60
2022/09/10 02:20:23;;;;;;;6.10;2.80;;;;;14.50;97140.00;;;;110641;1250;41264;-60
2022/09/10 02:22:57;;;;;;;6.80;3.10;;;;;14.50;97143.40;;;;110840;1250;41254;-61
2022/09/10 02:25:32;;;;;;;6.40;2.80;;;;;14.50;97146.80;;;;110707;1249;41281;-63
2022/09/10 02:28:07;;;;;;;6.90;3.10;;;;;14.52;97145.00;;;;110614;1250;41136;-60
2022/09/10 02:30:36;;;;;;;6.50;2.90;;;;;14.60;97140.20;;;;110713;1248;41146;-61
2022/09/10 02:33:08;;;;;;;5.40;2.70;;;;;14.60;97141.00;;;;110614;1250;41139;-61
2022/09/10 02:35:38;;;;;;;6.40;3.00;;;;;14.60;97141.20;;;;110649;1250;42384;-61
2022/09/10 02:38:09;;;;;;;8.10;3.00;;;;;14.60;97138.20;;;;110682;1250;41181;-61
2022/09/10 02:40:39;;;;;;;14.40;5.20;;;;;14.60;97139.20;;;;110652;1250;41603;-61
2022/09/10 02:43:08;;;;;;;18.80;4.40;;;;;14.60;97140.00;;;;110661;1250;41621;-61
2022/09/10 02:45:39;;;;;;;10.90;3.40;;;;;14.60;97130.40;;;;110621;1249;42402;-61
2022/09/10 02:48:09;;;;;;;;;;;;;14.60;97126.40;;;;110679;1250;41612;-61
2022/09/10 02:50:38;;;;;;;3.90;2.20;;;;;14.60;97125.20;;;;110686;1250;41263;-61
2022/09/10 02:53:08;;;;;;;6.70;2.80;;;;;14.60;97123.00;;;;110648;1250;41609;-61
2022/09/10 02:55:37;;;;;;;8.20;3.90;;;;;14.60;97119.40;;;;110619;1250;41155;-61
2022/09/10 02:58:07;;;;;;;8.10;3.90;;;;;14.50;97123.00;;;;110671;1250;41254;-61
2022/09/10 03:00:37;;;;;;;8.00;3.90;;;;;14.50;97116.80;;;;110646;1250;41594;-61
2022/09/10 03:03:07;;;;;;;9.30;4.60;;;;;14.50;97119.20;;;;110649;1251;41547;-61
2022/09/10 03:05:37;;;;;;;8.10;4.00;;;;;14.40;97116.20;;;;110633;1251;41135;-62
2022/09/10 03:08:08;;;;;;;7.50;3.70;;;;;14.50;97107.00;;;;110615;1250;42067;-63
2022/09/10 03:10:38;;;;;;;6.60;3.10;;;;;14.50;97101.20;;;;110644;1250;41135;-62
2022/09/10 03:13:07;;;;;;;7.40;3.40;;;;;14.50;97101.60;;;;110582;1250;41255;-61
2022/09/10 03:15:37;;;;;;;8.80;3.50;;;;;14.54;97097.60;;;;110639;1249;41115;-61
2022/09/10 03:18:08;;;;;;;7.10;3.60;;;;;14.60;97098.80;;;;110656;1251;41150;-61
2022/09/10 03:20:36;;;;;;;;;;;;;14.60;97092.40;;;;110661;1250;41644;-60
2022/09/10 03:23:07;;;;;;;6.50;3.00;;;;;14.60;97098.60;;;;110587;1250;41255;-60
2022/09/10 03:25:37;;;;;;;6.70;3.00;;;;;14.64;97097.80;;;;110620;1251;41142;-60
2022/09/10 03:28:08;;;;;;;7.20;3.60;;;;;14.70;97099.20;;;;110629;1251;41589;-62
2022/09/10 03:30:39;;;;;;;7.00;3.30;;;;;14.70;97093.20;;;;110664;1249;41164;-62
2022/09/10 03:33:10;;;;;;;7.80;3.60;;;;;14.76;97086.80;;;;110654;1250;41271;-61
2022/09/10 03:35:41;;;;;;;7.20;3.40;;;;;14.80;97087.80;;;;110655;1250;41147;-62
2022/09/10 03:38:12;;;;;;;8.90;4.00;;;;;14.80;97092.00;;;;110593;1250;41275;-61
2022/09/10 03:40:43;;;;;;;7.80;3.70;;;;;14.80;97092.60;;;;110620;1251;41150;-61
2022/09/10 03:43:12;;;;;;;7.30;3.50;;;;;14.90;97093.00;;;;110683;1251;41139;-62
2022/09/10 03:45:42;;;;;;;6.70;3.10;;;;;14.90;97092.00;;;;110615;1251;41148;-61
2022/09/10 03:48:12;;;;;;;6.50;2.90;;;;;14.90;97096.40;;;;110610;1250;41609;-62
2022/09/10 03:50:43;;;;;;;6.40;2.90;;;;;14.92;97089.40;;;;110682;1250;41161;-62
2022/09/10 03:53:14;;;;;;;6.70;3.20;;;;;15.00;97086.20;;;;110697;1250;41721;-62
2022/09/10 03:55:45;;;;;;;6.80;3.20;;;;;15.00;97083.40;;;;110630;1250;41255;-62
2022/09/10 03:58:17;;;;;;;7.40;3.20;;;;;15.00;97090.20;;;;110611;1251;41143;-62
2022/09/10 04:00:47;;;;;;;7.10;3.20;;;;;15.00;97091.40;;;;110605;1250;41286;-62
2022/09/10 04:03:19;;;;;;;7.70;3.50;;;;;15.00;97091.80;;;;110599;1250;41154;-62
2022/09/10 04:05:49;;;;;;;7.80;3.70;;;;;15.00;97089.00;;;;110611;1251;41136;-61
2022/09/10 04:08:20;;;;;;;7.90;4.00;;;;;15.00;97079.20;;;;110653;1251;41153;-62
2022/09/10 04:10:51;;;;;;;8.10;3.80;;;;;15.00;97076.40;;;;110654;1250;42076;-62
2022/09/10 04:13:21;;;;;;;6.80;3.30;;;;;15.00;97078.00;;;;110703;1250;41715;-62
2022/09/10 04:15:52;;;;;;;8.10;3.60;;;;;15.00;97093.40;;;;110689;1249;41267;-62
2022/09/10 04:18:21;;;;;;;7.50;3.60;;;;;15.00;97096.00;;;;110607;1251;41163;-62
2022/09/10 04:20:52;;;;;;;7.20;3.40;;;;;15.00;97094.60;;;;110607;1250;41706;-62
2022/09/10 04:23:22;;;;;;;7.50;3.70;;;;;15.06;97096.20;;;;110682;1250;41136;-62
2022/09/10 04:25:51;;;;;;;6.90;3.00;;;;;15.10;97093.20;;;;110647;1250;41264;-62
2022/09/10 04:28:21;;;;;;;6.30;2.90;;;;;15.10;97090.20;;;;111043;1248;41151;-62
2022/09/10 04:30:50;;;;;;;7.20;3.30;;;;;15.10;97094.60;;;;110697;1250;41721;-62
2022/09/10 04:33:20;;;;;;;8.90;4.50;;;;;15.16;97087.20;;;;110679;1250;41144;-62
2022/09/10 04:35:50;;;;;;;9.30;4.80;;;;;15.20;97082.00;;;;110872;1250;41125;-62
2022/09/10 04:38:19;;;;;;;9.30;4.30;;;;;15.20;97077.60;;;;110663;1250;41722;-62
2022/09/10 04:40:50;;;;;;;7.80;3.60;;;;;15.20;97073.60;;;;110641;1250;41242;-63
2022/09/10 04:43:19;;;;;;;9.20;3.90;;;;;15.28;97071.80;;;;110747;1251;41149;-63
2022/09/10 04:45:48;;;;;;;7.80;3.90;;;;;15.30;97075.40;;;;110984;1250;41669;-62
2022/09/10 04:48:18;;;;;;;8.10;3.50;;;;;15.32;97079.00;;;;110717;1250;41674;-62
2022/09/10 04:50:48;;;;;;;;;;;;;15.40;97072.40;;;;110735;1251;41610;-62
2022/09/10 04:53:40;;;;;;;8.90;4.60;;;;;15.40;97068.60;;;;110731;1250;41251;-62
2022/09/10 04:56:10;;;;;;;14.50;9.80;;;;;15.50;97071.60;;;;110977;1250;41260;-62
2022/09/10 04:58:39;;;;;;;11.10;6.80;;;;;15.50;97068.80;;;;110878;1250;42258;-62
2022/09/10 05:01:10;;;;;;;9.80;5.20;;;;;15.60;97066.40;;;;110924;1249;41951;-62
2022/09/10 05:03:39;;;;;;;8.50;4.20;;;;;15.72;97066.40;;;;110925;1250;41219;-62
2022/09/10 05:06:09;;;;;;;8.10;4.00;;;;;15.88;97066.80;;;;111062;1248;41166;-63
2022/09/10 05:08:38;;;;;;;10.60;6.00;;;;;16.00;97076.80;;;;111006;1250;42451;-63
2022/09/10 05:11:07;;;;;;;12.80;8.30;;;;;16.10;97069.60;;;;111068;1249;41261;-63
2022/09/10 05:13:36;;;;;;;13.50;7.20;;;;;16.20;97070.00;;;;110980;1251;41323;-63
2022/09/10 05:16:06;;;;;;;9.00;4.90;;;;;16.30;97067.40;;;;110658;1250;41153;-63
2022/09/10 05:18:35;;;;;;;11.50;6.10;;;;;16.40;97067.40;;;;110762;1250;42211;-63
2022/09/10 05:21:05;;;;;;;11.30;6.30;;;;;16.60;97064.60;;;;110701;1250;41156;-63
2022/09/10 05:23:35;;;;;;;11.60;6.50;;;;;16.94;97039.20;;;;110706;1250;41483;-63
2022/09/10 05:26:04;;;;;;;10.50;6.30;;;;;17.78;97041.80;;;;110660;1251;41270;-63
2022/09/10 05:28:33;;;;;;;9.20;4.60;;;;;18.40;97049.80;;;;110647;1251;42390;-63
2022/09/10 05:31:02;;;;;;;10.10;4.90;;;;;18.60;97057.00;;;;110857;1251;42417;-63
2022/09/10 05:33:31;;;;;;;12.10;5.30;;;;;18.54;97062.40;;;;110758;1249;41889;-63
2022/09/10 05:36:00;;;;;;;10.90;5.00;;;;;18.30;97063.00;;;;110877;1250;41312;-63
2022/09/10 05:38:30;;;;;;;11.50;6.50;;;;;18.20;97064.80;;;;110638;1251;41160;-63
2022/09/10 05:40:59;;;;;;;10.90;6.70;;;;;18.02;97065.20;;;;110728;1250;41368;-63
2022/09/10 05:43:29;;;;;;;11.60;4.70;;;;;18.00;97054.20;;;;110697;1250;41610;-63
2022/09/10 05:46:00;;;;;;;7.20;3.40;;;;;17.90;97052.00;;;;110758;1251;41252;-63
2022/09/10 05:48:30;;;;;;;8.30;3.90;;;;;18.00;97050.20;;;;110979;1249;41266;-63
2022/09/10 05:50:59;;;;;;;9.40;3.50;;;;;18.00;97056.60;;;;110615;1251;41629;-63
2022/09/10 05:53:29;;;;;;;8.50;3.90;;;;;18.10;97065.20;;;;110585;1250;41614;-63
2022/09/10 05:55:59;;;;;;;7.60;3.80;;;;;18.10;97063.00;;;;110895;1251;41148;-63
2022/09/10 05:58:29;;;;;;;;;;;;;18.14;97065.40;;;;110825;1250;42487;-63
2022/09/10 06:00:59;;;;;;;8.80;3.70;;;;;18.20;97063.20;;;;110986;1250;41534;-62
2022/09/10 06:03:28;;;;;;;10.40;4.40;;;;;18.20;97059.00;;;;111013;1251;41158;-62
2022/09/10 06:06:01;;;;;;;8.80;3.90;;;;;18.20;97051.00;;;;110937;1250;41451;-63
2022/09/10 06:08:34;;;;;;;8.00;3.70;;;;;18.30;97055.60;;;;110922;1251;41139;-63
2022/09/10 06:11:10;;;;;;;9.50;3.80;;;;;18.40;97057.80;;;;110799;1250;41606;-63
2022/09/10 06:13:48;;;;;;;10.30;4.20;;;;;18.50;97052.00;;;;110662;1250;41937;-63
2022/09/10 06:16:18;;;;;;;12.40;4.20;;;;;18.60;97051.20;;;;110678;1251;41604;-63
2022/09/10 06:18:46;;;;;;;8.90;4.50;;;;;18.70;97054.40;;;;110642;1251;41245;-63
2022/09/10 06:21:19;;;;;;;9.20;4.30;;;;;18.70;97057.40;;;;110671;1250;41512;-63
2022/09/10 06:23:53;;;;;;;10.00;4.70;;;;;18.80;97058.60;;;;110650;1250;41146;-63
2022/09/10 06:26:24;;;;;;;10.60;4.50;;;;;18.80;97053.00;;;;110674;1251;41161;-63
2022/09/10 06:28:56;;;;;;;9.00;3.50;;;;;18.90;97053.20;;;;110746;1251;41598;-63
2022/09/10 06:31:25;;;;;;;9.40;4.20;;;;;19.00;97049.40;;;;110882;1250;41966;-63
2022/09/10 06:33:55;;;;;;;9.70;4.80;;;;;18.98;97049.80;;;;110711;1250;41158;-63
2022/09/10 06:36:30;;;;;;;9.10;4.60;;;;;18.90;97045.00;;;;110677;1251;41309;-63
2022/09/10 06:39:02;;;;;;;9.70;4.90;;;;;18.86;97048.60;;;;110595;1251;41645;-62
2022/09/10 06:41:39;;;;;;;10.70;4.60;;;;;18.80;97054.40;;;;110934;1250;41140;-62
2022/09/10 06:44:13;;;;;;;8.40;4.20;;;;;18.90;97058.80;;;;110809;1251;41149;-62
2022/09/10 06:46:52;;;;;;;8.60;3.40;;;;;18.90;97069.00;;;;111200;1250;41259;-62
2022/09/10 06:49:41;;;;;;;8.70;4.30;;;;;19.00;97065.00;;;;111037;1250;41272;-63
2022/09/10 06:52:11;;;;;;;8.50;4.10;;;;;19.10;97064.80;;;;110909;1248;41124;-63
2022/09/10 06:54:41;;;;;;;8.10;3.60;;;;;19.14;97058.20;;;;110934;1249;41152;-63
2022/09/10 06:57:25;;;;;;;10.00;4.00;;;;;19.20;97053.40;;;;110911;1250;41906;-63
2022/09/10 06:59:54;;;;;;;12.30;5.10;;;;;19.20;97048.40;;;;110826;1251;41214;-63
2022/09/10 07:02:23;;;;;;;10.70;4.50;;;;;19.10;97041.60;;;;110780;1250;41925;-64
2022/09/10 07:04:53;;;;;;;;;;;;;19.20;97039.60;;;;111003;1250;41259;-63
2022/09/10 07:07:22;;;;;;;8.20;3.60;;;;;19.20;97037.80;;;;110994;1250;41690;-63
2022/09/10 07:09:51;;;;;;;9.10;4.20;;;;;19.26;97037.80;;;;111020;1250;41157;-64
2022/09/10 07:12:20;;;;;;;9.60;4.40;;;;;19.30;97033.20;;;;110738;1250;41137;-63
2022/09/10 07:14:49;;;;;;;9.00;4.00;;;;;19.40;97034.60;;;;111040;1250;41143;-63
2022/09/10 07:17:19;;;;;;;9.50;3.90;;;;;19.50;97026.00;;;;111036;1248;41995;-63
2022/09/10 07:19:48;;;;;;;8.90;4.40;;;;;19.70;97031.20;;;;110688;1250;41720;-63
2022/09/10 07:22:26;;;;;;;12.80;5.50;;;;;19.80;97034.00;;;;110998;1250;41141;-63
2022/09/10 07:24:55;;;;;;;10.90;5.50;;;;;20.00;97038.60;;;;111010;1250;42367;-64
2022/09/10 07:27:32;;;;;;;10.70;5.70;;;;;20.20;97034.80;;;;111013;1250;41254;-63
2022/09/10 07:30:01;;;;;;;12.20;6.10;;;;;20.56;97032.20;;;;110659;1250;41142;-64
2022/09/10 07:32:34;;;;;;;12.00;5.00;;;;;20.80;97027.40;;;;111007;1249;41721;-64
2022/09/10 07:35:11;;;;;;;9.20;4.60;;;;;21.26;97023.40;;;;111001;1248;41665;-64
2022/09/10 07:37:40;;;;;;;9.90;4.60;;;;;21.52;97010.40;;;;111024;1249;41260;-63
2022/09/10 07:40:10;;;;;;;11.10;4.50;;;;;22.18;97014.60;;;;111034;1250;41518;-64
2022/09/10 07:42:40;;;;;;;9.40;4.80;;;;;22.96;97018.00;;;;111033;1250;42771;-64
2022/09/10 07:45:14;;;;;;;11.30;4.40;;;;;23.90;97017.00;;;;111093;1250;41915;-64
2022/09/10 07:47:46;;;;;;;10.20;4.60;;;;;24.40;97008.40;;;;111046;1250;41339;-63
2022/09/10 07:50:15;;;;;;;10.20;4.90;;;;;24.80;97017.00;;;;110735;1250;41189;-63
2022/09/10 07:52:45;;;;;;;19.80;5.40;;;;;24.32;97018.20;;;;110652;1251;41190;-63
2022/09/10 07:55:16;;;;;;;10.00;4.50;;;;;23.46;97023.40;;;;110681;1248;41255;-64
2022/09/10 07:57:45;;;;;;;12.70;5.60;;;;;22.88;97028.00;;;;110863;1250;41155;-63
2022/09/10 08:00:15;;;;;;;8.50;4.10;;;;;22.44;97024.40;;;;111020;1250;41257;-64
2022/09/10 08:02:48;;;;;;;10.30;5.40;;;;;22.16;97024.20;;;;111017;1247;41140;-63
2022/09/10 08:05:19;;;;;;;;;;;;;21.80;97028.40;;;;111014;1250;41145;-63
2022/09/10 08:07:53;;;;;;;12.00;5.50;;;;;21.50;97029.80;;;;111052;1248;41594;-62
2022/09/10 08:10:22;;;;;;;12.50;5.10;;;;;21.30;97040.00;;;;110678;1246;42233;-62
2022/09/10 08:12:51;;;;;;;9.90;4.60;;;;;21.10;97030.80;;;;110942;1251;41722;-64
2022/09/10 08:15:21;;;;;;;11.90;5.40;;;;;21.10;97045.80;;;;111044;1250;41204;-64
2022/09/10 08:17:51;;;;;;;10.50;5.50;;;;;20.94;97042.20;;;;111029;1250;41396;-64
2022/09/10 08:20:25;;;;;;;10.10;5.10;;;;;20.80;97028.00;;;;111014;1250;41371;-63
2022/09/10 08:22:57;;;;;;;11.20;5.00;;;;;20.78;97027.60;;;;111019;1250;41132;-63
2022/09/10 08:25:26;;;;;;;10.00;5.10;;;;;20.86;97034.80;;;;111044;1247;41170;-64
2022/09/10 08:27:56;;;;;;;12.80;6.20;;;;;21.00;97034.00;;;;110999;1248;41143;-64
2022/09/10 08:30:25;;;;;;;10.80;5.30;;;;;21.04;97034.00;;;;110758;1250;41146;-63
2022/09/10 08:32:55;;;;;;;11.90;5.80;;;;;21.10;97037.00;;;;110719;1250;41153;-64
2022/09/10 08:35:25;;;;;;;10.90;5.30;;;;;21.20;97039.80;;;;111025;1250;41667;-63
2022/09/10 08:37:53;;;;;;;14.70;4.90;;;;;21.30;97039.00;;;;110964;1248;41140;-63
2022/09/10 08:40:24;;;;;;;10.80;5.60;;;;;21.30;97041.80;;;;110819;1250;41256;-64
2022/09/10 08:42:53;;;;;;;10.50;5.20;;;;;21.30;97046.40;;;;110947;1251;41360;-63
2022/09/10 08:45:31;;;;;;;9.70;4.20;;;;;21.40;97041.40;;;;110702;1251;41299;-64
2022/09/10 08:48:16;;;;;;;12.20;5.00;;;;;21.50;97039.40;;;;110601;1250;41941;-63
2022/09/10 08:50:58;;;;;;;12.10;5.50;;;;;21.70;97040.00;;;;111008;1248;41604;-64
2022/09/10 08:53:53;;;;;;;9.50;4.70;;;;;21.80;97037.20;;;;110723;1250;41741;-64
2022/09/10 08:56:22;;;;;;;11.20;4.90;;;;;22.96;97016.00;;;;111115;1251;41528;-64
2022/09/10 08:59:02;;;;;;;8.30;4.30;;;;;24.82;97011.20;;;;111112;1250;41384;-65
2022/09/10 09:01:42;;;;;;;10.00;4.00;;;;;26.58;97004.80;;;;110992;1251;41149;-64
2022/09/10 09:04:19;;;;;;;9.80;4.00;;;;;28.26;96998.80;;;;111032;1250;41112;-65
2022/09/10 09:06:50;;;;;;;9.30;4.00;;;;;29.64;96985.80;;;;110991;1250;41469;-65
2022/09/10 09:09:21;;;;;;;8.60;3.20;;;;;30.16;96983.20;;;;111001;1250;41707;-64
2022/09/10 09:12:06;;;;;;;8.60;3.80;;;;;31.06;96982.40;;;;111003;1250;41627;-65
2022/09/10 09:14:49;;;;;;;10.10;3.30;;;;;31.10;96979.60;;;;110854;1250;41638;-64
2022/09/10 09:17:27;;;;;;;7.30;3.20;;;;;31.40;96972.60;;;;110770;1250;41940;-64
2022/09/10 09:20:21;;;;;;;8.50;3.70;;;;;32.04;96969.40;;;;111045;1250;41619;-65
2022/09/10 09:22:52;;;;;;;11.70;3.30;;;;;32.66;96962.00;;;;110981;1251;42381;-65
2022/09/10 09:25:34;;;;;;;7.20;3.10;;;;;33.16;96959.80;;;;110979;1250;41135;-65
2022/09/10 09:28:04;;;;;;;10.30;3.70;;;;;33.60;96948.60;;;;110726;1250;41118;-65
2022/09/10 09:30:41;;;;;;;10.30;3.30;;;;;33.42;96946.00;;;;110681;1251;42380;-65
2022/09/10 09:33:15;;;;;;;7.70;3.30;;;;;32.12;96946.80;;;;110811;1250;41154;-65
2022/09/10 09:35:51;;;;;;;9.70;3.80;;;;;31.70;96947.60;;;;111025;1250;42522;-65
2022/09/10 09:38:31;;;;;;;8.40;3.40;;;;;30.98;96953.80;;;;111035;1250;41161;-65
2022/09/10 09:41:06;;;;;;;8.10;3.60;;;;;30.90;96946.00;;;;111059;1247;41136;-65
2022/09/10 09:44:21;;;;;;;6.90;3.40;;;;;31.10;96943.20;;;;110891;1251;41598;-65
2022/09/10 09:46:50;;;;;;;9.20;3.90;;;;;30.28;96946.80;;;;110717;1251;41250;-65
2022/09/10 09:49:20;;;;;;;9.70;3.60;;;;;30.00;96941.40;;;;111023;1250;41261;-65
2022/09/10 09:51:50;;;;;;;11.00;3.80;;;;;30.16;96932.60;;;;110744;1250;41637;-64
2022/09/10 09:54:25;;;;;;;10.40;3.60;;;;;30.50;96928.60;;;;111013;1250;41121;-64
2022/09/10 09:57:18;;;;;;;8.50;3.70;;;;;30.56;96921.40;;;;111011;1251;41260;-66
2022/09/10 09:59:48;;;;;;;8.40;3.70;;;;;30.50;96913.60;;;;111025;1251;41269;-64
2022/09/10 10:02:24;;;;;;;;;;;;;30.30;96912.40;;;;111070;1250;41316;-64
2022/09/10 10:04:59;;;;;;;9.80;4.20;;;;;30.60;96902.20;;;;111040;1250;42401;-63
2022/09/10 10:07:30;;;;;;;8.50;4.00;;;;;30.20;96901.00;;;;111036;1249;41297;-65
2022/09/10 10:10:00;;;;;;;7.80;3.40;;;;;30.06;96898.60;;;;111057;1250;41175;-65
2022/09/10 10:12:32;;;;;;;8.30;3.60;;;;;29.80;96896.40;;;;110761;1251;41452;-65
2022/09/10 10:15:02;;;;;;;11.70;4.70;;;;;29.64;96901.80;;;;111052;1250;41697;-64
2022/09/10 10:17:33;;;;;;;7.30;3.20;;;;;30.06;96904.20;;;;110935;1251;41149;-64
2022/09/10 10:20:11;;;;;;;8.30;3.20;;;;;30.12;96900.80;;;;110996;1250;41150;-64
2022/09/10 10:22:42;;;;;;;9.80;3.50;;;;;30.48;96894.00;;;;111005;1250;41258;-64
2022/09/10 10:25:29;;;;;;;8.30;3.50;;;;;30.62;96893.80;;;;110830;1250;41631;-64
2022/09/10 10:27:59;;;;;;;7.20;3.10;;;;;31.20;96893.80;;;;111014;1251;41155;-65
2022/09/10 10:30:28;;;;;;;7.90;3.00;;;;;31.22;96888.20;;;;110998;1251;41354;-64
2022/09/10 10:33:02;;;;;;;9.50;3.10;;;;;31.10;96889.60;;;;110696;1251;41254;-64
2022/09/10 10:35:35;;;;;;;7.10;2.60;;;;;30.14;96893.80;;;;111037;1250;41185;-64
2022/09/10 10:38:33;;;;;;;8.60;3.10;;;;;29.52;96886.00;;;;110683;1250;42710;-64
2022/09/10 10:41:30;;;;;;;7.50;3.30;;;;;28.98;96899.20;;;;111010;1248;41149;-65
2022/09/10 10:43:58;;;;;;;8.30;3.30;;;;;28.90;96901.00;;;;110994;1250;41540;-65
2022/09/10 10:46:48;;;;;;;7.60;3.30;;;;;28.66;96904.60;;;;111030;1251;41880;-66
2022/09/10 10:49:43;;;;;;;11.10;5.40;;;;;27.86;96907.80;;;;111069;1249;41972;-65
2022/09/10 10:52:18;;;;;;;10.30;3.60;;;;;27.24;96919.40;;;;111035;1248;42483;-64
2022/09/10 10:55:12;;;;;;;9.00;3.60;;;;;27.04;96916.40;;;;111040;1248;41129;-64
2022/09/10 10:57:56;;;;;;;12.60;3.10;;;;;26.80;96926.80;;;;111046;1250;41142;-64
2022/09/10 11:00:25;;;;;;;9.10;3.80;;;;;26.50;96921.40;;;;110966;1248;41157;-64
2022/09/10 11:03:14;;;;;;;8.20;3.70;;;;;26.20;96922.00;;;;111009;1250;41250;-64
2022/09/10 11:05:56;;;;;;;7.70;3.80;;;;;26.04;96916.20;;;;111033;1250;41614;-64
2022/09/10 11:08:37;;;;;;;8.00;3.20;;;;;25.80;96919.60;;;;110994;1251;41168;-64
2022/09/10 11:11:20;;;;;;;10.20;4.20;;;;;25.70;96922.80;;;;111011;1249;41393;-64
2022/09/10 11:14:00;;;;;;;9.50;3.70;;;;;25.60;96927.60;;;;111043;1250;41719;-64
2022/09/10 11:16:42;;;;;;;7.70;4.00;;;;;25.50;96929.00;;;;111010;1250;41130;-64
2022/09/10 11:19:34;;;;;;;10.00;3.80;;;;;25.12;96922.20;;;;111006;1249;41143;-63
2022/09/10 11:22:14;;;;;;;10.90;4.40;;;;;24.70;96915.20;;;;111016;1248;41584;-64
2022/09/10 11:24:48;;;;;;;10.20;4.50;;;;;24.26;96923.00;;;;111002;1250;41258;-63
2022/09/10 11:27:45;;;;;;;11.70;5.70;;;;;24.10;96921.00;;;;111042;1248;41251;-64
2022/09/10 11:30:15;;;;;;;24.90;12.00;;;;;24.30;96917.00;;;;110896;1250;41632;-64
2022/09/10 11:33:04;;;;;;;10.10;5.60;;;;;24.58;96910.40;;;;110959;1251;41713;-64
2022/09/10 11:35:34;;;;;;;11.70;5.00;;;;;24.72;96911.00;;;;110800;1251;41613;-65
2022/09/10 11:38:22;;;;;;;9.00;4.10;;;;;24.80;96906.20;;;;110690;1250;42047;-64
2022/09/10 11:40:59;;;;;;;8.90;3.80;;;;;24.80;96899.20;;;;110956;1249;41260;-64
2022/09/10 11:43:44;;;;;;;12.10;4.60;;;;;24.80;96893.20;;;;110933;1250;41181;-65
2022/09/10 11:46:18;;;;;;;7.90;3.50;;;;;24.90;96885.80;;;;110912;1251;41940;-64
2022/09/10 11:49:02;;;;;;;9.50;4.20;;;;;25.00;96876.80;;;;110682;1250;41135;-65
2022/09/10 11:51:38;;;;;;;8.00;3.40;;;;;25.30;96871.00;;;;110736;1250;41444;-64
2022/09/10 11:54:14;;;;;;;7.00;3.40;;;;;26.02;96869.20;;;;110952;1251;41152;-65
2022/09/10 11:56:51;;;;;;;8.50;3.80;;;;;27.18;96866.60;;;;110892;1251;42512;-65
2022/09/10 11:59:57;;;;;;;8.10;3.80;;;;;28.92;96865.60;;;;110754;1250;41152;-65
2022/09/10 12:02:38;;;;;;;7.20;3.50;;;;;29.98;96867.00;;;;110985;1251;41194;-65
2022/09/10 12:05:24;;;;;;;11.60;3.60;;;;;30.10;96861.00;;;;110966;1250;41126;-65
2022/09/10 12:08:05;;;;;;;9.50;4.20;;;;;30.48;96850.20;;;;110580;1250;41808;-64
2022/09/10 12:11:05;;;;;;;10.70;3.80;;;;;30.88;96836.20;;;;110939;1251;41722;-64
2022/09/10 12:13:40;;;;;;;8.40;3.60;;;;;31.08;96830.00;;;;110923;1251;41621;-65
2022/09/10 12:16:20;;;;;;;8.40;3.50;;;;;31.04;96829.00;;;;110955;1250;41970;-65
2022/09/10 12:18:51;;;;;;;7.70;3.00;;;;;30.10;96836.80;;;;110879;1250;41151;-65
2022/09/10 12:21:40;;;;;;;9.00;3.70;;;;;28.50;96842.20;;;;110725;1249;41185;-65
2022/09/10 12:24:28;;;;;;;10.40;3.90;;;;;27.54;96846.60;;;;110707;1250;41720;-64
2022/09/10 12:27:01;;;;;;;9.10;3.60;;;;;27.02;96849.00;;;;110672;1250;41263;-64
2022/09/10 12:29:35;;;;;;;12.50;4.10;;;;;26.66;96848.00;;;;109298;1250;1806409;-64
2022/09/10 12:32:07;;;;;;;8.70;4.00;;;;;26.42;96843.40;;;;110728;1248;41254;-64
2022/09/10 12:34:36;;;;;;;7.50;3.30;;;;;26.20;96845.00;;;;110944;1250;41132;-65
2022/09/10 12:37:18;;;;;;;8.90;4.10;;;;;26.00;96844.20;;;;110805;1251;41154;-64
2022/09/10 12:39:47;;;;;;;8.90;3.70;;;;;25.90;96849.20;;;;110718;1250;41614;-65
2022/09/10 12:42:28;;;;;;;9.30;4.20;;;;;25.80;96858.00;;;;110818;1250;41170;-64